Cuevas, Mississippi
Current Conditions -  °F | °C
As of 8:53 AM on Thursday 23 Oct 2014 (Local Time) from KGPT Reporting Station
Clear Clear  
Wind Chill: 57°   Ceiling: Unl
Heat Index: 57°   Visibility: 10mi
Dew Point: 45°   Wind: 9mph
Humidity: 64%   Direction: 40°NE
Pressure: 30.11"   Gusts: NA
Location:  30.4627°N, 89.3274°W
Report Text: KGPT 231353Z 04008KT 10SM CLR 14/07 A3011 RMK AO2 SLP197 T01390072
Loading
Personal Weather Stations






























Interactive Weather Map
Tropical Storm Tracking
New forecast layout! Learn more

10-Day Weather Forecast

Advertisements
Track Severe Weather on mobile